Time;durP1;ratioP1;P1;durP2;ratioP2;P2;SDS_P1;SDS_P2;PMS_P1;PMS_P2;Temp;Humidity;BMP_temperature;BMP_pressure;BME280_temperature;BME280_humidity;BME280_pressure;Samples;Min_cycle;Max_cycle;Signal;HPM_P1;HPM_P2
2022/08/14 00:01:21;;;;;;;3.27;2.67;;;;;;;22.92;56.92;101579.88;4996953;28;20199;-83
2022/08/14 00:03:47;;;;;;;4.40;2.67;;;;;;;22.94;56.92;101578.09;4981390;28;20184;-83
2022/08/14 00:06:12;;;;;;;5.87;3.03;;;;;;;22.93;56.95;101568.53;4997984;28;20680;-84
2022/08/14 00:08:41;;;;;;;5.07;2.60;;;;;;;22.90;57.26;101560.75;4982081;28;20294;-84
2022/08/14 00:11:12;;;;;;;3.30;2.70;;;;;;;22.89;57.42;101561.66;4996410;28;20278;-85
2022/08/14 00:13:40;;;;;;;7.77;2.83;;;;;;;22.86;57.47;101546.03;4980075;28;20198;-83
2022/08/14 00:16:06;;;;;;;4.03;2.40;;;;;;;22.84;57.93;101555.63;4993257;28;20278;-82
2022/08/14 00:18:37;;;;;;;5.47;3.10;;;;;;;22.81;57.90;101550.50;4977177;28;20260;-83
2022/08/14 00:21:07;;;;;;;3.33;2.50;;;;;;;22.86;58.01;101563.44;4983373;28;20180;-82
2022/08/14 00:23:32;;;;;;;5.57;3.07;;;;;;;22.83;57.51;101556.53;4981101;28;20232;-84
2022/08/14 00:25:58;;;;;;;3.17;2.67;;;;;;;22.80;58.58;101559.22;4996216;28;20289;-86
2022/08/14 00:28:26;;;;;;;4.07;2.60;;;;;;;22.83;58.28;101553.91;4997519;28;20210;-86
2022/08/14 00:30:56;;;;;;;3.47;2.60;;;;;;;22.81;58.48;101547.00;4998412;28;20680;-85
2022/08/14 00:33:26;;;;;;;5.10;2.73;;;;;;;22.77;58.52;101546.22;4998137;28;20187;-87
2022/08/14 00:35:52;;;;;;;3.83;2.80;;;;;;;22.76;58.77;101541.88;4980738;28;20187;-83
2022/08/14 00:38:19;;;;;;;3.47;2.50;;;;;;;22.76;58.56;101538.41;4980606;28;20218;-85
2022/08/14 00:40:45;;;;;;;3.90;2.80;;;;;;;22.75;58.79;101536.69;4980043;28;20206;-84
2022/08/14 00:43:10;;;;;;;5.03;2.80;;;;;;;22.72;59.10;101537.59;4980142;28;20199;-82
2022/08/14 00:45:36;;;;;;;5.67;2.60;;;;;;;22.76;58.79;101527.94;4996222;28;20590;-83
2022/08/14 00:48:03;;;;;;;5.10;2.80;;;;;;;22.72;59.45;101526.28;4972918;28;20555;-83
2022/08/14 00:50:31;;;;;;;5.63;2.80;;;;;;;22.72;59.00;101532.38;4994733;28;20222;-84
2022/08/14 00:53:01;;;;;;;3.97;2.70;;;;;;;22.71;59.32;101528.06;4989071;28;20492;-82
2022/08/14 00:55:28;;;;;;;2.80;2.50;;;;;;;22.71;59.34;101527.19;4981555;28;20215;-82
2022/08/14 01:00:39;;;;;;;5.03;2.90;;;;;;;22.69;59.66;101524.59;4991962;28;20335;-85
2022/08/14 01:03:07;;;;;;;4.43;2.70;;;;;;;22.70;59.25;101522.84;4975751;28;20195;-84
2022/08/14 01:05:33;;;;;;;4.33;2.97;;;;;;;22.68;59.60;101527.22;4977166;28;20217;-85
2022/08/14 01:08:00;;;;;;;5.33;3.00;;;;;;;22.65;60.21;101532.53;4988372;28;20222;-81
2022/08/14 01:10:49;;;;;;;2.60;2.40;;;;;;;22.67;60.01;101528.13;4991064;28;20180;-80
2022/08/14 01:13:15;;;;;;;4.97;2.53;;;;;;;22.63;60.49;101519.50;4993595;28;20266;-80
2022/08/14 01:15:54;;;;;;;4.30;3.13;;;;;;;22.64;60.05;101521.22;4991227;28;20194;-82
2022/08/14 01:21:13;;;;;;;2.93;2.53;;;;;;;22.62;60.40;101523.00;4994109;28;20199;-80
2022/08/14 01:23:49;;;;;;;3.70;2.60;;;;;;;22.60;60.41;101516.09;4994143;28;20207;-81
2022/08/14 01:26:22;;;;;;;4.57;2.77;;;;;;;22.57;60.62;101522.22;4995913;28;20683;-82
2022/08/14 01:28:54;;;;;;;4.87;3.00;;;;;;;22.57;60.96;101519.63;4997587;28;20717;-84
2022/08/14 01:31:21;;;;;;;3.53;2.80;;;;;;;22.56;61.17;101523.09;4981887;28;20203;-86
2022/08/14 01:33:49;;;;;;;6.57;2.80;;;;;;;22.55;60.86;101523.16;4998501;28;20180;-84
2022/08/14 01:36:16;;;;;;;4.97;2.80;;;;;;;22.53;60.72;101520.56;4981512;28;20812;-85
2022/08/14 01:38:44;;;;;;;4.40;2.80;;;;;;;22.52;60.82;101515.38;4998331;28;20216;-82
2022/08/14 01:41:18;;;;;;;6.17;3.03;;;;;;;22.53;60.81;101520.56;4997817;28;20196;-83
2022/08/14 01:43:50;;;;;;;4.23;2.50;;;;;;;22.51;61.20;101508.44;4981644;28;20685;-84
2022/08/14 01:46:23;;;;;;;4.07;3.00;;;;;;;22.48;61.28;101517.19;4998139;28;21049;-83
2022/08/14 01:48:51;;;;;;;5.23;2.77;;;;;;;22.47;61.29;101511.97;4987458;28;20203;-86
2022/08/14 01:51:21;;;;;;;2.90;2.60;;;;;;;22.42;61.83;101512.88;4984919;28;20234;-84
2022/08/14 01:53:56;;;;;;;3.23;2.67;;;;;;;22.42;61.54;101511.16;4981038;28;20188;-85
2022/08/14 01:56:43;;;;;;;5.70;2.70;;;;;;;22.38;61.85;101510.34;4979145;28;20548;-85
2022/08/14 01:59:08;;;;;;;5.03;3.13;;;;;;;22.33;61.90;101507.81;4979686;28;20223;-82
2022/08/14 02:01:34;;;;;;;4.00;2.63;;;;;;;22.33;62.36;101501.72;4979984;28;20185;-85
2022/08/14 02:04:02;;;;;;;3.27;2.93;;;;;;;22.29;62.53;101498.31;4979757;28;20569;-85
2022/08/14 02:06:28;;;;;;;3.23;2.83;;;;;;;22.23;62.63;101499.34;4979221;28;20204;-83
2022/08/14 02:08:54;;;;;;;3.27;2.77;;;;;;;22.13;63.72;101501.22;4968296;28;20638;-82
2022/08/14 02:11:21;;;;;;;5.13;3.00;;;;;;;22.11;63.57;101496.03;4998476;28;20188;-85
2022/08/14 02:14:03;;;;;;;2.60;2.33;;;;;;;22.08;63.89;101487.41;4982552;28;20184;-83
2022/08/14 02:16:33;;;;;;;3.50;2.60;;;;;;;22.04;63.66;101497.03;4999328;28;20176;-83
2022/08/14 02:19:00;;;;;;;5.43;3.00;;;;;;;22.04;63.83;101491.81;4982286;28;20219;-83
2022/08/14 02:21:30;;;;;;;5.57;2.93;;;;;;;22.02;64.08;101488.38;4982406;28;20184;-83
2022/08/14 02:23:56;;;;;;;6.60;3.47;;;;;;;21.96;64.54;101485.00;4982109;28;20199;-83
2022/08/14 02:26:25;;;;;;;3.47;3.10;;;;;;;21.93;64.60;101482.47;4997829;28;20311;-83
2022/08/14 02:28:54;;;;;;;4.20;2.77;;;;;;;21.86;65.44;101488.66;4999853;28;20358;-83
2022/08/14 02:31:20;;;;;;;3.23;2.93;;;;;;;21.87;64.80;101482.53;4998170;28;20199;-83
2022/08/14 02:33:46;;;;;;;7.50;3.07;;;;;;;21.84;65.16;101482.59;4997731;28;20192;-83
2022/08/14 02:36:13;;;;;;;4.67;2.80;;;;;;;21.83;65.10;101483.50;4981094;28;20187;-83
2022/08/14 02:38:39;;;;;;;4.43;2.87;;;;;;;21.83;65.06;101484.34;4997612;28;20242;-83
2022/08/14 02:41:09;;;;;;;5.83;2.87;;;;;;;21.80;65.69;101478.31;4981554;28;20192;-83
2022/08/14 02:43:36;;;;;;;4.87;2.73;;;;;;;21.76;65.49;101476.66;4980939;28;20234;-82
2022/08/14 02:46:02;;;;;;;2.90;2.53;;;;;;;21.72;65.76;101474.97;4996330;28;20668;-82
2022/08/14 02:48:30;;;;;;;7.37;3.13;;;;;;;21.69;66.30;101472.44;4997188;28;20295;-83
2022/08/14 02:50:57;;;;;;;8.63;3.10;;;;;;;21.70;65.75;101468.94;4982401;28;20202;-84
2022/08/14 02:53:23;;;;;;;3.40;2.70;;;;;;;21.66;66.67;101462.84;4983381;28;20184;-80
2022/08/14 02:55:49;;;;;;;3.20;2.63;;;;;;;21.62;66.65;101457.72;4998260;28;20191;-81
2022/08/14 02:58:16;;;;;;;3.27;2.80;;;;;;;21.62;66.66;101456.00;4997951;28;20272;-82
2022/08/14 03:00:42;;;;;;;5.20;2.13;;;;;;;21.61;66.49;101461.22;4981096;28;20255;-85
2022/08/14 03:03:07;;;;;;;3.47;2.50;;;;;;;21.54;67.00;101457.84;4977537;28;20298;-81
2022/08/14 03:05:33;;;;;;;4.27;2.63;;;;;;;21.55;67.15;101458.69;4978214;28;20223;-80
2022/08/14 03:08:11;;;;;;;4.30;2.80;;;;;;;21.53;67.34;101460.47;4994358;28;20632;-81
2022/08/14 03:10:37;;;;;;;6.30;2.77;;;;;;;21.49;67.68;101457.06;4997856;28;20215;-84
2022/08/14 03:13:03;;;;;;;3.27;2.87;;;;;;;21.47;67.55;101456.19;4981301;28;20184;-81
2022/08/14 03:15:37;;;;;;;3.83;2.90;;;;;;;21.41;68.19;101458.91;4999066;28;20184;-84
2022/08/14 03:18:03;;;;;;;3.47;2.40;;;;;;;21.46;67.89;101464.06;4997811;28;20230;-82
2022/08/14 03:20:29;;;;;;;3.73;2.33;;;;;;;21.43;67.83;101457.13;4999744;28;20188;-83
2022/08/14 03:22:59;;;;;;;4.23;2.70;;;;;;;21.40;68.04;101456.31;4984837;28;20226;-83
2022/08/14 03:25:25;;;;;;;3.90;2.90;;;;;;;21.38;68.56;101453.72;5003285;28;20215;-83
2022/08/14 03:27:51;;;;;;;6.83;2.97;;;;;;;21.36;69.01;101455.50;5001342;28;20207;-82
2022/08/14 03:30:16;;;;;;;5.13;2.97;;;;;;;21.32;69.57;101455.56;4998575;28;20188;-83
2022/08/14 03:32:44;;;;;;;3.30;2.93;;;;;;;21.30;69.25;101457.34;4981936;28;20278;-84
2022/08/14 03:35:10;;;;;;;4.70;3.10;;;;;;;21.30;69.35;101454.75;4997318;28;20255;-82
2022/08/14 03:37:36;;;;;;;4.27;2.90;;;;;;;21.27;69.45;101454.78;4980720;28;20250;-82
2022/08/14 03:40:03;;;;;;;3.63;3.00;;;;;;;21.26;69.35;101456.53;4980908;28;20184;-82
2022/08/14 03:42:29;;;;;;;4.20;2.70;;;;;;;21.23;69.39;101453.13;4980853;28;20895;-84
2022/08/14 03:44:54;;;;;;;6.33;3.00;;;;;;;21.22;69.74;101452.25;4980749;28;20223;-82
2022/08/14 03:47:20;;;;;;;6.13;3.00;;;;;;;21.20;69.86;101451.41;4996098;28;20225;-85
2022/08/14 03:49:47;;;;;;;4.07;2.97;;;;;;;21.16;70.43;101446.25;4979598;28;20184;-84
2022/08/14 03:52:12;;;;;;;7.60;2.87;;;;;;;21.09;70.21;101453.28;4996535;28;20245;-85
2022/08/14 03:54:38;;;;;;;3.87;2.50;;;;;;;21.06;70.63;101442.06;4995667;28;20187;-84
2022/08/14 03:57:04;;;;;;;3.27;2.80;;;;;;;21.04;70.58;101439.47;4980175;28;20176;-86
2022/08/14 03:59:33;;;;;;;3.03;2.60;;;;;;;21.03;71.17;101439.50;4998262;28;20203;-83
2022/08/14 04:02:02;;;;;;;4.90;3.20;;;;;;;20.96;71.20;101433.50;4983403;28;20731;-85
2022/08/14 04:04:31;;;;;;;4.57;3.00;;;;;;;20.93;71.13;101428.34;4999195;28;20195;-83
2022/08/14 04:06:58;;;;;;;4.37;2.60;;;;;;;20.90;71.64;101437.94;4981290;28;20215;-83
2022/08/14 04:09:24;;;;;;;5.20;3.30;;;;;;;20.92;71.73;101437.03;4997832;28;20261;-81
2022/08/14 04:11:49;;;;;;;3.97;2.90;;;;;;;20.89;71.77;101426.63;4997396;28;20191;-84
2022/08/14 04:14:15;;;;;;;4.30;2.90;;;;;;;20.88;72.04;101429.25;4979901;28;20215;-81
2022/08/14 04:16:45;;;;;;;11.37;3.13;;;;;;;20.81;72.09;101432.81;4996673;28;20234;-81
2022/08/14 04:19:10;;;;;;;3.67;2.80;;;;;;;20.83;72.27;101423.25;4997142;28;20223;-80
2022/08/14 04:21:36;;;;;;;5.70;3.07;;;;;;;20.74;72.94;101426.84;4995373;28;20188;-83
2022/08/14 04:24:02;;;;;;;5.60;3.00;;;;;;;20.78;72.48;101418.06;4995859;28;20274;-83
2022/08/14 04:26:29;;;;;;;3.30;2.80;;;;;;;20.78;73.13;101417.25;4975590;28;20254;-82
2022/08/14 04:28:56;;;;;;;4.60;3.10;;;;;;;20.77;72.75;101420.72;4964518;28;20705;-84
2022/08/14 04:31:23;;;;;;;6.27;2.80;;;;;;;20.73;73.29;101416.44;4994752;28;20330;-84
2022/08/14 04:33:51;;;;;;;4.47;3.13;;;;;;;20.75;73.29;101414.66;4979803;28;20184;-84
2022/08/14 04:36:17;;;;;;;4.97;3.20;;;;;;;20.78;72.90;101407.66;4995893;28;20234;-84
2022/08/14 04:44:10;;;;;;;9.07;3.30;;;;;;;20.79;73.65;101408.53;4996095;28;20195;-83
2022/08/14 04:46:36;;;;;;;4.40;3.07;;;;;;;20.86;73.25;101407.59;4988254;28;20223;-83
2022/08/14 04:49:05;;;;;;;6.57;3.40;;;;;;;20.91;72.85;101398.84;4976399;28;20208;-82
2022/08/14 04:51:31;;;;;;;4.10;2.97;;;;;;;20.90;73.18;101404.94;4975549;28;20184;-84
2022/08/14 04:53:59;;;;;;;4.77;3.10;;;;;;;20.93;73.03;101410.13;4995144;28;20222;-80
2022/08/14 04:56:26;;;;;;;3.27;2.97;;;;;;;21.00;72.72;101413.50;4992129;28;20179;-78
2022/08/14 04:58:58;;;;;;;3.83;3.20;;;;;;;21.01;73.25;101413.47;4976193;28;20212;-79
2022/08/14 05:01:24;;;;;;;3.57;3.03;;;;;;;21.03;73.13;101410.84;4997627;28;20731;-82
2022/08/14 05:03:51;;;;;;;4.43;3.13;;;;;;;21.13;72.50;101404.59;4999711;28;20187;-81
2022/08/14 05:06:17;;;;;;;6.70;3.27;;;;;;;21.11;72.95;101403.78;4998329;28;20242;-80
2022/08/14 05:08:43;;;;;;;5.17;3.13;;;;;;;21.20;72.69;101398.44;4999205;28;20238;-83
2022/08/14 05:11:09;;;;;;;4.33;2.80;;;;;;;21.20;73.25;101399.31;4984510;28;20191;-78
2022/08/14 05:13:38;;;;;;;3.97;3.07;;;;;;;21.24;72.80;101408.78;4984692;28;20180;-82
2022/08/14 05:16:06;;;;;;;3.90;3.00;;;;;;;21.24;73.27;101400.97;5000193;28;20245;-84
2022/08/14 05:18:36;;;;;;;5.17;3.20;;;;;;;21.26;72.77;101403.53;4998792;28;20267;-83
2022/08/14 05:21:09;;;;;;;3.73;2.80;;;;;;;21.40;72.59;101398.97;4984518;28;20188;-82
2022/08/14 05:23:38;;;;;;;4.60;3.23;;;;;;;21.47;72.57;101393.63;4983477;28;20194;-82
2022/08/14 05:26:11;;;;;;;4.20;3.00;;;;;;;21.56;72.06;101401.31;5000381;28;20215;-83
2022/08/14 05:28:40;;;;;;;5.87;3.00;;;;;;;21.62;71.85;101397.75;4988978;28;20286;-84
2022/08/14 05:31:06;;;;;;;3.20;2.90;;;;;;;21.67;71.74;101399.41;5003632;28;20275;-82
2022/08/14 05:33:33;;;;;;;4.13;2.80;;;;;;;21.77;71.57;101397.50;5012294;28;20188;-81
2022/08/14 05:36:02;;;;;;;7.37;3.40;;;;;;;21.90;70.84;101396.41;5001700;28;20191;-80
2022/08/14 05:38:34;;;;;;;4.80;3.00;;;;;;;21.82;71.21;101386.13;4984157;28;20215;-82
2022/08/14 05:41:01;;;;;;;4.60;2.80;;;;;;;21.82;71.70;101386.13;4984556;28;20238;-84
2022/08/14 05:43:29;;;;;;;5.27;2.97;;;;;;;21.89;70.82;101386.88;4987929;28;20222;-80
2022/08/14 05:45:56;;;;;;;8.20;3.07;;;;;;;22.04;69.94;101382.25;5011541;28;20265;-85
2022/08/14 05:48:23;;;;;;;4.73;3.20;;;;;;;22.18;69.65;101375.00;5019781;28;20305;-81
2022/08/14 05:50:53;;;;;;;3.23;2.93;;;;;;;22.40;68.85;101388.50;4999500;28;20188;-80
2022/08/14 05:53:24;;;;;;;4.97;3.00;;;;;;;22.57;68.38;101375.13;4982133;28;20263;-80
2022/08/14 05:55:49;;;;;;;9.87;3.27;;;;;;;22.69;67.78;101374.88;4998211;28;20180;-81
2022/08/14 05:58:15;;;;;;;6.00;2.80;;;;;;;22.87;67.61;101371.84;4981600;28;20369;-79
2022/08/14 06:00:42;;;;;;;5.23;2.77;;;;;;;23.06;67.38;101365.31;4998960;28;20188;-83
2022/08/14 06:03:13;;;;;;;5.07;2.80;;;;;;;23.19;66.17;101365.03;4998522;28;20258;-80
2022/08/14 06:05:40;;;;;;;5.33;3.20;;;;;;;23.35;65.99;101365.50;5000983;28;20231;-82
2022/08/14 06:08:25;;;;;;;4.13;2.87;;;;;;;23.44;65.47;101363.50;4984706;28;20212;-77
2022/08/14 06:10:54;;;;;;;5.20;2.70;;;;;;;23.54;65.07;101359.78;4985551;28;20187;-83
2022/08/14 06:13:20;;;;;;;3.50;2.90;;;;;;;23.44;65.40;101357.44;4984086;28;20206;-85
2022/08/14 06:15:47;;;;;;;4.97;2.97;;;;;;;23.45;64.79;101353.94;4984121;28;20188;-82
2022/08/14 06:18:14;;;;;;;5.87;3.27;;;;;;;23.39;64.98;101351.47;4983129;28;20279;-84
2022/08/14 06:20:40;;;;;;;5.93;2.90;;;;;;;23.60;64.37;101341.31;4982504;28;20188;-85
2022/08/14 06:23:05;;;;;;;4.57;3.13;;;;;;;23.90;63.25;101337.06;4965910;28;20194;-82
2022/08/14 06:25:33;;;;;;;7.17;3.50;;;;;;;24.00;63.76;101335.91;4982073;28;20630;-78
2022/08/14 06:27:59;;;;;;;6.40;2.77;;;;;;;24.27;61.92;101330.75;4993541;28;20242;-77
2022/08/14 06:30:30;;;;;;;6.23;3.10;;;;;;;24.40;62.14;101332.09;4996429;28;20196;-83
2022/08/14 06:32:56;;;;;;;8.10;3.10;;;;;;;24.38;62.54;101333.06;4983330;28;20206;-83
2022/08/14 06:35:22;;;;;;;7.57;3.30;;;;;;;24.18;62.78;101330.16;4982072;28;20192;-84
2022/08/14 06:37:49;;;;;;;3.80;2.80;;;;;;;24.29;63.13;101328.09;5000299;28;20244;-82
2022/08/14 06:40:32;;;;;;;4.97;2.73;;;;;;;24.45;62.19;101334.63;4998472;28;20991;-84
2022/08/14 06:43:18;;;;;;;6.40;3.40;;;;;;;24.62;60.89;101337.59;4982494;28;20274;-83
2022/08/14 06:45:48;;;;;;;9.03;3.17;;;;;;;24.50;61.14;101335.34;4999881;28;20204;-81
2022/08/14 06:48:22;;;;;;;7.20;3.10;;;;;;;24.82;60.84;101340.50;4996209;28;20274;-81
2022/08/14 06:50:49;;;;;;;6.37;3.30;;;;;;;24.89;60.06;101337.63;4979944;28;20199;-81
2022/08/14 06:53:18;;;;;;;7.63;3.20;;;;;;;24.74;60.75;101330.25;4997336;28;20323;-81
2022/08/14 06:55:46;;;;;;;4.90;3.00;;;;;;;25.04;59.99;101325.81;4977132;28;20230;-82
2022/08/14 06:58:16;;;;;;;4.67;3.03;;;;;;;25.24;59.53;101331.25;4983993;28;20651;-82
2022/08/14 07:06:16;;;;;;;8.43;3.60;;;;;;;25.04;60.26;101317.94;4996223;28;20240;-81
2022/08/14 07:08:43;;;;;;;4.45;3.00;;;;;;;25.42;59.74;101318.41;4980713;28;20248;-82
2022/08/14 07:11:10;;;;;;;5.00;3.38;;;;;;;25.51;58.76;101323.34;4999847;28;20255;-80
2022/08/14 07:13:36;;;;;;;5.50;2.95;;;;;;;25.71;57.85;101317.41;4981018;28;20188;-83
2022/08/14 07:16:02;;;;;;;7.22;3.03;;;;;;;26.02;57.81;101310.19;4994952;28;20199;-82
2022/08/14 07:18:31;;;;;;;6.90;3.20;;;;;;;26.10;57.71;101305.53;4984384;28;20251;-82
2022/08/14 07:20:59;;;;;;;6.38;3.17;;;;;;;25.94;57.82;101310.47;5001160;28;20192;-81
2022/08/14 07:23:25;;;;;;;5.95;2.83;;;;;;;26.32;57.07;101309.03;4984010;28;20187;-82
2022/08/14 07:25:55;;;;;;;6.80;3.25;;;;;;;26.67;56.71;101308.59;4998636;28;20216;-81
2022/08/14 07:28:28;;;;;;;6.60;3.20;;;;;;;26.69;55.64;101312.00;4995170;28;20236;-80
2022/08/14 07:30:56;;;;;;;4.75;3.67;;;;;;;26.29;56.41;101309.19;4999574;28;20192;-82
2022/08/14 07:33:30;;;;;;;5.25;3.10;;;;;;;26.70;55.78;101301.44;4983866;28;20206;-84
2022/08/14 07:35:58;;;;;;;5.97;2.80;;;;;;;26.68;55.32;101300.66;4955473;28;20186;-81
2022/08/14 07:38:26;;;;;;;5.60;3.40;;;;;;;27.14;55.09;101308.41;4977127;28;20212;-82
2022/08/14 07:40:58;;;;;;;8.95;3.20;;;;;;;26.71;55.00;101315.44;4957783;28;20184;-81
2022/08/14 07:43:28;;;;;;;6.10;3.10;;;;;;;26.98;54.93;101302.03;4962855;28;20676;-84
2022/08/14 07:46:06;;;;;;;4.90;3.00;;;;;;;27.02;55.05;101301.00;4977680;28;20288;-81
2022/08/14 07:48:40;;;;;;;5.00;3.20;;;;;;;27.19;54.30;101297.72;4977091;28;20263;-84
2022/08/14 07:51:06;;;;;;;6.40;2.70;;;;;;;27.36;53.56;101292.59;4980598;28;20601;-81
2022/08/14 07:53:32;;;;;;;5.00;3.13;;;;;;;27.75;52.90;101288.25;4972995;28;20650;-82
2022/08/14 07:55:58;;;;;;;4.60;3.15;;;;;;;27.63;53.18;101286.16;4974104;28;20187;-81
2022/08/14 07:58:24;;;;;;;6.25;3.28;;;;;;;28.04;53.04;101286.06;4979859;28;20267;-82
2022/08/14 08:00:54;;;;;;;5.70;3.08;;;;;;;28.32;52.98;101290.94;4980241;28;20191;-81
2022/08/14 08:03:21;;;;;;;5.50;3.00;;;;;;;28.31;51.54;101294.47;4997367;28;20230;-80
2022/08/14 08:05:47;;;;;;;7.45;3.13;;;;;;;28.57;50.77;101289.75;4979188;28;20649;-80
2022/08/14 08:08:15;;;;;;;11.48;3.47;;;;;;;28.78;50.19;101290.50;4995420;28;20211;-81
2022/08/14 08:10:42;;;;;;;5.57;3.00;;;;;;;28.85;50.63;101278.72;4979711;28;20184;-81
2022/08/14 08:13:13;;;;;;;6.55;2.90;;;;;;;28.92;49.97;101280.13;4999015;28;20187;-82
2022/08/14 08:15:42;;;;;;;4.68;2.92;;;;;;;29.11;48.50;101284.44;4997414;28;20195;-81
2022/08/14 08:18:10;;;;;;;7.05;3.17;;;;;;;29.36;48.55;101284.06;4997628;28;20242;-82
2022/08/14 08:20:45;;;;;;;6.30;3.38;;;;;;;29.01;48.87;101287.63;4995472;28;20187;-82
2022/08/14 08:23:12;;;;;;;7.45;3.08;;;;;;;28.42;49.73;101286.97;4979404;28;20214;-83
2022/08/14 08:25:40;;;;;;;4.45;3.35;;;;;;;28.59;49.57;101279.97;4995188;28;20253;-83
2022/08/14 08:28:15;;;;;;;5.32;3.10;;;;;;;29.10;49.06;101279.25;4979189;28;20207;-84
2022/08/14 08:30:47;;;;;;;3.80;3.38;;;;;;;29.13;48.62;101279.09;4995817;28;20294;-79
2022/08/14 08:33:15;;;;;;;4.32;3.15;;;;;;;29.34;48.74;101270.94;4990213;28;20191;-82
2022/08/14 08:35:41;;;;;;;6.40;3.15;;;;;;;29.98;47.05;101276.41;4995319;28;20188;-80
2022/08/14 08:38:10;;;;;;;4.25;3.47;;;;;;;30.11;46.55;101273.00;4979281;28;20211;-82
2022/08/14 08:40:41;;;;;;;3.90;3.47;;;;;;;30.21;45.71;101276.03;4989026;28;20196;-82
2022/08/14 08:43:26;;;;;;;8.25;3.22;;;;;;;30.58;46.04;101269.56;4976432;28;20199;-82
2022/08/14 08:46:01;;;;;;;4.53;3.10;;;;;;;30.39;45.99;101280.31;4992921;28;20309;-79
2022/08/14 08:48:29;;;;;;;5.78;3.28;;;;;;;30.09;46.55;101277.53;4991812;28;20237;-82
2022/08/14 08:51:04;;;;;;;6.28;3.83;;;;;;;30.45;45.95;101279.09;4992491;28;20230;-80
2022/08/14 08:53:38;;;;;;;6.53;3.40;;;;;;;30.90;45.88;101268.59;4978538;28;20187;-79
2022/08/14 08:56:04;;;;;;;6.18;3.35;;;;;;;30.72;45.94;101259.06;4995371;28;20662;-81
2022/08/14 08:58:29;;;;;;;5.32;3.85;;;;;;;31.10;45.03;101258.56;4994961;28;20239;-81
2022/08/14 09:01:00;;;;;;;6.45;3.85;;;;;;;31.52;43.66;101252.53;4996375;28;20637;-80
2022/08/14 09:03:28;;;;;;;3.88;3.53;;;;;;;31.76;43.71;101245.78;4997045;28;20253;-80
2022/08/14 09:06:02;;;;;;;7.70;3.85;;;;;;;31.96;42.56;101251.56;4979580;28;20673;-81
2022/08/14 09:08:34;;;;;;;4.80;3.85;;;;;;;32.22;43.25;101252.56;4995600;28;20270;-81
2022/08/14 09:11:11;;;;;;;4.63;3.63;;;;;;;32.66;41.77;101253.22;4997777;28;20184;-83
2022/08/14 09:13:36;;;;;;;6.75;4.07;;;;;;;32.44;41.74;101255.56;4997344;28;20199;-81
2022/08/14 09:16:02;;;;;;;4.45;3.60;;;;;;;32.70;41.76;101252.09;4998725;28;20715;-80
2022/08/14 09:18:28;;;;;;;3.85;3.47;;;;;;;32.83;40.87;101242.41;4996093;28;20288;-82
2022/08/14 09:20:56;;;;;;;5.53;4.00;;;;;;;32.79;41.22;101247.06;4996963;28;20245;-82
2022/08/14 09:23:22;;;;;;;4.38;3.90;;;;;;;32.89;40.99;101249.94;4996747;28;20791;-81
2022/08/14 09:25:49;;;;;;;7.70;3.67;;;;;;;32.56;41.14;101241.53;4979980;28;20692;-82
2022/08/14 09:28:18;;;;;;;5.85;3.97;;;;;;;32.06;41.43;101242.06;4995293;28;20266;-82
2022/08/14 09:30:51;;;;;;;7.30;4.43;;;;;;;32.65;40.29;101246.22;4994577;28;20228;-82
2022/08/14 09:33:42;;;;;;;5.68;4.05;;;;;;;32.36;41.15;101240.16;4978531;28;20183;-80
2022/08/14 09:36:41;;;;;;;6.55;4.55;;;;;;;32.21;42.27;101241.09;4979203;28;20645;-80
2022/08/14 09:39:32;;;;;;;6.50;4.32;;;;;;;32.16;41.46;101237.03;4995524;28;20212;-83
2022/08/14 09:42:11;;;;;;;9.88;4.25;;;;;;;32.92;40.37;101223.19;4996538;28;20211;-82
2022/08/14 09:45:01;;;;;;;4.93;4.13;;;;;;;32.46;40.72;101232.47;4994748;28;20171;-81
2022/08/14 09:47:59;;;;;;;7.70;4.10;;;;;;;31.69;42.31;101229.38;4997595;28;20222;-82
2022/08/14 09:50:44;;;;;;;8.75;4.32;;;;;;;31.66;43.43;101229.56;4976458;28;20265;-80
2022/08/14 09:53:11;;;;;;;5.22;3.75;;;;;;;32.31;42.21;101223.69;4998202;28;20202;-81
2022/08/14 09:55:37;;;;;;;7.95;4.28;;;;;;;32.62;41.15;101225.19;4999393;28;20187;-82
2022/08/14 09:58:15;;;;;;;7.57;3.97;;;;;;;33.33;40.98;101222.09;4981273;28;20216;-80
2022/08/14 10:00:46;;;;;;;5.65;3.75;;;;;;;33.48;40.65;101215.75;4998246;28;20563;-82
2022/08/14 10:03:23;;;;;;;6.72;4.65;;;;;;;33.20;39.49;101212.41;4997635;28;20791;-81
2022/08/14 10:05:49;;;;;;;8.50;5.05;;;;;;;33.24;38.67;101201.47;4997579;28;20277;-81
2022/08/14 10:08:20;;;;;;;6.28;4.50;;;;;;;33.08;39.90;101205.25;4998153;28;20203;-81
2022/08/14 10:10:45;;;;;;;6.63;4.70;;;;;;;32.91;40.08;101209.06;4998767;28;20195;-80
2022/08/14 10:13:23;;;;;;;5.78;4.70;;;;;;;33.19;39.18;101203.56;4998014;28;20196;-81
2022/08/14 10:15:50;;;;;;;6.45;4.10;;;;;;;33.29;39.53;101194.03;4998309;28;20190;-81
2022/08/14 10:18:18;;;;;;;8.60;4.75;;;;;;;33.06;40.07;101194.75;5000049;28;20302;-81
2022/08/14 10:20:59;;;;;;;6.78;4.68;;;;;;;32.88;40.69;101184.53;4997453;28;20199;-81
2022/08/14 10:23:41;;;;;;;6.65;4.68;;;;;;;32.42;41.06;101186.72;4999094;28;20173;-79
2022/08/14 10:26:08;;;;;;;5.57;4.50;;;;;;;32.04;41.59;101184.78;4997270;28;20218;-81
2022/08/14 10:28:48;;;;;;;5.72;4.47;;;;;;;32.33;41.79;101182.00;4980992;28;20614;-82
2022/08/14 10:31:23;;;;;;;7.53;4.57;;;;;;;32.35;41.58;101176.56;4981046;28;20187;-81
2022/08/14 10:34:01;;;;;;;4.72;4.20;;;;;;;32.51;42.25;101175.47;4981449;28;20187;-81
2022/08/14 10:36:48;;;;;;;6.15;4.25;;;;;;;32.65;41.42;101174.56;4998491;28;20187;-82
2022/08/14 10:39:18;;;;;;;7.07;4.32;;;;;;;32.65;41.55;101169.25;4994300;28;20700;-79
2022/08/14 10:41:44;;;;;;;6.70;4.68;;;;;;;32.56;41.68;101164.56;4994724;28;20187;-81
2022/08/14 10:44:20;;;;;;;6.70;4.20;;;;;;;32.71;41.03;101166.19;4981009;28;20572;-82
2022/08/14 10:46:52;;;;;;;6.13;4.80;;;;;;;32.41;41.67;101173.53;4997566;28;20229;-81
2022/08/14 10:49:22;;;;;;;6.13;4.22;;;;;;;32.10;42.63;101171.13;4998280;28;20211;-82
2022/08/14 10:52:00;;;;;;;5.82;4.82;;;;;;;31.90;43.00;101164.44;4997362;28;20267;-82
2022/08/14 10:54:43;;;;;;;6.78;4.88;;;;;;;31.91;42.74;101171.44;4997101;28;20266;-82
2022/08/14 10:57:23;;;;;;;5.95;5.25;;;;;;;31.82;42.70;101163.25;4997081;28;20656;-81
2022/08/14 10:59:55;;;;;;;7.07;5.47;;;;;;;31.59;41.00;101169.97;4997615;28;20187;-83
2022/08/14 11:02:22;;;;;;;5.85;5.30;;;;;;;31.40;41.40;101156.13;4981686;28;20218;-82
2022/08/14 11:05:06;;;;;;;6.20;5.55;;;;;;;31.47;42.09;101151.31;4998614;28;20279;-82
2022/08/14 11:07:35;;;;;;;8.90;5.78;;;;;;;31.46;42.18;101153.13;4996595;28;20277;-83
2022/08/14 11:10:09;;;;;;;6.80;6.05;;;;;;;31.41;41.95;101149.91;4996554;28;20855;-83
2022/08/14 11:12:49;;;;;;;8.55;5.85;;;;;;;31.48;43.13;101150.38;4997536;28;20277;-82
2022/08/14 11:15:26;;;;;;;6.13;5.53;;;;;;;31.65;42.78;101147.50;4996956;28;20176;-83
2022/08/14 11:17:54;;;;;;;6.55;5.85;;;;;;;31.68;42.65;101150.81;4996657;28;20222;-84
2022/08/14 11:20:23;;;;;;;10.77;5.65;;;;;;;31.69;41.41;101155.19;4998480;28;20176;-79
2022/08/14 11:22:54;;;;;;;9.50;6.10;;;;;;;31.69;41.84;101155.19;4998627;28;20218;-83
2022/08/14 11:25:22;;;;;;;6.30;5.30;;;;;;;31.84;41.71;101142.78;4980646;28;20637;-82
2022/08/14 11:27:50;;;;;;;9.77;6.07;;;;;;;31.81;41.48;101140.34;4996331;28;20306;-84
2022/08/14 11:30:18;;;;;;;5.72;5.13;;;;;;;32.31;42.72;101136.13;4995852;28;20192;-82
2022/08/14 11:32:47;;;;;;;7.20;5.75;;;;;;;32.40;40.41;101124.94;4998056;28;20195;-80
2022/08/14 11:35:19;;;;;;;6.25;5.63;;;;;;;33.12;40.52;101119.13;4998079;28;20184;-81
2022/08/14 11:37:56;;;;;;;10.27;5.90;;;;;;;33.46;39.51;101118.47;4995557;28;20779;-83
2022/08/14 11:40:23;;;;;;;8.57;5.50;;;;;;;33.10;37.99;101105.13;4977959;28;20410;-81
2022/08/14 11:42:54;;;;;;;6.10;5.60;;;;;;;32.92;39.15;101107.22;4987601;28;20191;-79
2022/08/14 11:45:21;;;;;;;6.65;5.93;;;;;;;33.19;38.65;101096.50;5016889;28;20202;-82
2022/08/14 11:47:46;;;;;;;7.13;5.82;;;;;;;33.08;39.92;101099.91;5000842;28;20215;-81
2022/08/14 11:50:13;;;;;;;6.32;5.55;;;;;;;32.61;39.29;101099.63;4995454;28;20188;-79
2022/08/14 11:52:39;;;;;;;7.03;6.15;;;;;;;32.49;39.92;101103.09;4979068;28;20194;-81